Time;durP1;ratioP1;P1;durP2;ratioP2;P2;SDS_P1;SDS_P2;PMS_P1;PMS_P2;Temp;Humidity;BMP_temperature;BMP_pressure;BME280_temperature;BME280_humidity;BME280_pressure;Samples;Min_cycle;Max_cycle;Signal;HPM_P1;HPM_P2
2022/05/15 00:01:22;;;;;;;1999.90;999.90;;;;;;;-145.26;100.00;63821.50;4994370;28;20061;-66
2022/05/15 00:03:48;;;;;;;1999.90;999.90;;;;;;;-145.26;100.00;63821.50;4993210;28;20057;-65
2022/05/15 00:06:14;;;;;;;1999.90;999.90;;;;;;;-145.26;100.00;63821.50;4993088;28;20472;-66
2022/05/15 00:08:39;;;;;;;1999.90;999.90;;;;;;;-145.26;100.00;63821.50;4993679;28;20100;-67
2022/05/15 00:11:08;;;;;;;1999.90;999.90;;;;;;;-145.26;100.00;63821.50;5012559;28;20030;-69
2022/05/15 00:13:34;;;;;;;1999.90;999.90;;;;;;;-145.26;100.00;63821.50;5011461;28;20021;-67
2022/05/15 00:15:59;;;;;;;1999.90;999.90;;;;;;;-145.26;100.00;63821.50;4998318;28;20125;-67
2022/05/15 00:18:25;;;;;;;1999.90;999.90;;;;;;;-145.26;100.00;63821.50;4993462;28;20031;-68
2022/05/15 00:20:51;;;;;;;1999.90;999.90;;;;;;;-145.26;100.00;63821.50;4993820;28;20027;-67
2022/05/15 00:23:18;;;;;;;1999.90;999.90;;;;;;;-145.26;100.00;63821.50;4992766;28;20030;-67
2022/05/15 00:25:45;;;;;;;1999.90;999.90;;;;;;;-145.26;100.00;63821.50;4997221;28;20073;-69
2022/05/15 00:28:10;;;;;;;1999.90;999.90;;;;;;;-145.26;100.00;63821.50;4992047;28;20026;-67
2022/05/15 00:30:37;;;;;;;1999.90;999.90;;;;;;;-145.26;100.00;63821.50;4992229;28;20030;-67
2022/05/15 00:33:03;;;;;;;1999.90;999.90;;;;;;;-145.26;100.00;63821.50;4997979;28;20026;-67
2022/05/15 00:35:29;;;;;;;1999.90;999.90;;;;;;;-145.26;100.00;63821.50;4993712;28;20057;-67
2022/05/15 00:37:55;;;;;;;1999.90;999.90;;;;;;;-145.26;100.00;63821.50;4979679;28;20062;-69
2022/05/15 00:40:22;;;;;;;1999.90;999.90;;;;;;;-145.26;100.00;63821.50;4985356;28;20093;-67
2022/05/15 00:42:48;;;;;;;1999.90;999.90;;;;;;;-145.26;100.00;63821.50;4993551;28;20030;-67
2022/05/15 00:45:15;;;;;;;1999.90;999.90;;;;;;;-145.26;100.00;63821.50;4992159;28;20456;-67
2022/05/15 00:47:41;;;;;;;1999.90;999.90;;;;;;;-145.26;100.00;63821.50;4993541;28;20129;-67
2022/05/15 00:50:22;;;;;;;1999.90;999.90;;;;;;;-145.26;100.00;63821.50;4991404;28;20463;-67
2022/05/15 00:52:50;;;;;;;1999.90;999.90;;;;;;;-145.26;100.00;63821.50;4973975;28;20496;-67
2022/05/15 00:55:21;;;;;;;1999.90;999.90;;;;;;;-145.26;100.00;63821.50;4988650;28;20026;-67
2022/05/15 00:58:03;;;;;;;1999.90;999.90;;;;;;;-145.26;100.00;63821.50;5013120;28;20104;-68
2022/05/15 01:00:32;;;;;;;1999.90;999.90;;;;;;;-145.26;100.00;63821.50;5007602;28;20060;-68
2022/05/15 01:03:09;;;;;;;1999.90;999.90;;;;;;;-145.26;100.00;63821.50;4991239;28;20034;-67
2022/05/15 01:05:38;;;;;;;1999.90;999.90;;;;;;;-145.26;100.00;63821.50;4991858;28;20018;-67
2022/05/15 01:08:04;;;;;;;1999.90;999.90;;;;;;;-145.26;100.00;63821.50;4991256;28;20023;-67
2022/05/15 01:10:29;;;;;;;1999.90;999.90;;;;;;;-145.26;100.00;63821.50;4991039;28;20026;-68
2022/05/15 01:12:58;;;;;;;1999.90;999.90;;;;;;;-145.26;100.00;63821.50;4975444;28;20119;-67
2022/05/15 01:15:26;;;;;;;1999.90;999.90;;;;;;;-145.26;100.00;63821.50;4992977;28;20030;-68
2022/05/15 01:17:51;;;;;;;1999.90;999.90;;;;;;;-145.26;100.00;63821.50;4991860;28;20034;-67
2022/05/15 01:20:22;;;;;;;1999.90;999.90;;;;;;;-145.26;100.00;63821.50;4991917;28;20059;-67
2022/05/15 01:22:47;;;;;;;1999.90;999.90;;;;;;;-145.26;100.00;63821.50;4992349;28;20026;-67
2022/05/15 01:25:23;;;;;;;1999.90;999.90;;;;;;;-145.26;100.00;63821.50;4976932;28;20083;-67
2022/05/15 01:27:53;;;;;;;1999.90;999.90;;;;;;;-145.26;100.00;63821.50;4975708;28;20085;-67
2022/05/15 01:30:20;;;;;;;1999.90;999.90;;;;;;;-145.26;100.00;63821.50;4974971;28;20487;-68
2022/05/15 01:32:46;;;;;;;1999.90;999.90;;;;;;;-145.26;100.00;63821.50;4974689;28;20108;-67
2022/05/15 01:35:11;;;;;;;1999.90;999.90;;;;;;;-145.26;100.00;63821.50;4992729;28;20054;-69
2022/05/15 01:37:37;;;;;;;1999.90;999.90;;;;;;;-145.26;100.00;63821.50;4975349;28;20035;-68
2022/05/15 01:40:04;;;;;;;1999.90;999.90;;;;;;;-145.26;100.00;63821.50;4974153;28;20035;-67
2022/05/15 01:42:30;;;;;;;1999.90;999.90;;;;;;;-145.26;100.00;63821.50;5006466;28;20109;-67
2022/05/15 01:44:56;;;;;;;1999.90;999.90;;;;;;;-145.26;100.00;63821.50;5012235;28;20054;-67
2022/05/15 01:47:21;;;;;;;1999.90;999.90;;;;;;;-145.26;100.00;63821.50;4984225;28;20654;-67
2022/05/15 01:49:46;;;;;;;1999.90;999.90;;;;;;;-145.26;100.00;63821.50;4992155;28;20022;-68
2022/05/15 01:52:12;;;;;;;1999.90;999.90;;;;;;;-145.26;100.00;63821.50;4992202;28;20109;-67
2022/05/15 01:54:39;;;;;;;1999.90;999.90;;;;;;;-145.26;100.00;63821.50;4992211;28;20125;-67
2022/05/15 01:57:05;;;;;;;1999.90;999.90;;;;;;;-145.26;100.00;63821.50;4973116;28;20026;-67
2022/05/15 01:59:30;;;;;;;1999.90;999.90;;;;;;;-145.26;100.00;63821.50;4991098;28;20069;-67
2022/05/15 02:01:56;;;;;;;1999.90;999.90;;;;;;;-145.26;100.00;63821.50;4991336;28;20081;-68
2022/05/15 02:04:21;;;;;;;1999.90;999.90;;;;;;;-145.26;100.00;63821.50;4991787;28;20026;-67
2022/05/15 02:06:46;;;;;;;1999.90;999.90;;;;;;;-145.26;100.00;63821.50;4992127;28;20036;-68
2022/05/15 02:09:12;;;;;;;1999.90;999.90;;;;;;;-145.26;100.00;63821.50;4990230;28;20113;-67
2022/05/15 02:11:38;;;;;;;1999.90;999.90;;;;;;;-145.26;100.00;63821.50;4991800;28;20022;-69
2022/05/15 02:14:04;;;;;;;1999.90;999.90;;;;;;;-145.26;100.00;63821.50;4994062;28;20633;-67
2022/05/15 02:16:31;;;;;;;1999.90;999.90;;;;;;;-145.26;100.00;63821.50;5011010;28;20034;-67
2022/05/15 02:18:56;;;;;;;1999.90;999.90;;;;;;;-145.26;100.00;63821.50;4975873;28;20026;-70
2022/05/15 02:21:22;;;;;;;1999.90;999.90;;;;;;;-145.26;100.00;63821.50;4990078;28;20442;-68
2022/05/15 02:23:47;;;;;;;1999.90;999.90;;;;;;;-145.26;100.00;63821.50;4991025;28;20474;-68
2022/05/15 02:26:12;;;;;;;1999.90;999.90;;;;;;;-145.26;100.00;63821.50;4991426;28;20018;-67
2022/05/15 02:28:38;;;;;;;1999.90;999.90;;;;;;;-145.26;100.00;63821.50;4972220;28;20035;-68
2022/05/15 02:31:04;;;;;;;1999.90;999.90;;;;;;;-145.26;100.00;63821.50;4991235;28;20030;-67
2022/05/15 02:33:29;;;;;;;1999.90;999.90;;;;;;;-145.26;100.00;63821.50;4990516;28;20210;-68
2022/05/15 02:35:54;;;;;;;1999.90;999.90;;;;;;;-145.26;100.00;63821.50;4991516;28;20030;-68
2022/05/15 02:38:20;;;;;;;1999.90;999.90;;;;;;;-145.26;100.00;63821.50;4991067;28;20400;-68
2022/05/15 02:40:45;;;;;;;1999.90;999.90;;;;;;;-145.26;100.00;63821.50;4990379;28;20034;-68
2022/05/15 02:43:11;;;;;;;1999.90;999.90;;;;;;;-145.26;100.00;63821.50;4997434;28;20030;-68
2022/05/15 02:45:36;;;;;;;1999.90;999.90;;;;;;;-145.26;100.00;63821.50;5010806;28;20036;-68
2022/05/15 02:48:02;;;;;;;1999.90;999.90;;;;;;;-145.26;100.00;63821.50;5005134;28;20057;-68
2022/05/15 02:53:12;;;;;;;1999.90;999.90;;;;;;;-145.26;100.00;63821.50;5010658;28;20049;-68
2022/05/15 02:55:37;;;;;;;1999.90;999.90;;;;;;;-145.26;100.00;63821.50;5010684;28;20394;-67
2022/05/15 02:58:04;;;;;;;1999.90;999.90;;;;;;;-145.26;100.00;63821.50;5003600;28;20034;-67
2022/05/15 03:00:29;;;;;;;1999.90;999.90;;;;;;;-145.26;100.00;63821.50;4973976;28;20761;-68
2022/05/15 03:02:55;;;;;;;1999.90;999.90;;;;;;;-145.26;100.00;63821.50;4990979;28;20037;-68
2022/05/15 03:05:21;;;;;;;1999.90;999.90;;;;;;;-145.26;100.00;63821.50;4991409;28;20085;-68
2022/05/15 03:07:47;;;;;;;1999.90;999.90;;;;;;;-145.26;100.00;63821.50;4991214;28;20479;-68
2022/05/15 03:10:16;;;;;;;1999.90;999.90;;;;;;;-145.26;100.00;63821.50;4989687;28;20038;-69
2022/05/15 03:12:42;;;;;;;1999.90;999.90;;;;;;;-145.26;100.00;63821.50;4989973;28;20117;-68
2022/05/15 03:15:11;;;;;;;1999.90;999.90;;;;;;;-145.26;100.00;63821.50;4991081;28;20025;-69
2022/05/15 03:17:37;;;;;;;1999.90;999.90;;;;;;;-145.26;100.00;63821.50;4990118;28;20073;-68
2022/05/15 03:20:06;;;;;;;1999.90;999.90;;;;;;;-145.26;100.00;63821.50;4972558;28;20479;-68
2022/05/15 03:22:32;;;;;;;1999.90;999.90;;;;;;;-145.26;100.00;63821.50;4989681;28;20529;-67
2022/05/15 03:24:57;;;;;;;1999.90;999.90;;;;;;;-145.26;100.00;63821.50;4990661;28;20035;-68
2022/05/15 03:27:23;;;;;;;1999.90;999.90;;;;;;;-145.26;100.00;63821.50;4989817;28;20026;-67
2022/05/15 03:29:48;;;;;;;1999.90;999.90;;;;;;;-145.26;100.00;63821.50;4989510;28;20022;-68
2022/05/15 03:32:13;;;;;;;1999.90;999.90;;;;;;;-145.26;100.00;63821.50;4973261;28;20094;-68
2022/05/15 03:34:39;;;;;;;1999.90;999.90;;;;;;;-145.26;100.00;63821.50;4972442;28;20030;-68
2022/05/15 03:37:04;;;;;;;1999.90;999.90;;;;;;;-145.26;100.00;63821.50;4990669;28;20022;-68
2022/05/15 03:39:29;;;;;;;1999.90;999.90;;;;;;;-145.26;100.00;63821.50;4990198;28;20401;-68
2022/05/15 03:41:55;;;;;;;1999.90;999.90;;;;;;;-145.26;100.00;63821.50;4990429;28;20387;-67
2022/05/15 03:44:20;;;;;;;1999.90;999.90;;;;;;;-145.26;100.00;63821.50;4989778;28;20026;-68
2022/05/15 03:46:46;;;;;;;1999.90;999.90;;;;;;;-145.26;100.00;63821.50;5004560;28;20038;-68
2022/05/15 03:49:13;;;;;;;1999.90;999.90;;;;;;;-145.26;100.00;63821.50;4998004;28;20026;-68
2022/05/15 03:51:39;;;;;;;1999.90;999.90;;;;;;;-145.26;100.00;63821.50;4973439;28;20018;-67
2022/05/15 03:54:05;;;;;;;1999.90;999.90;;;;;;;-145.26;100.00;63821.50;4990232;28;20030;-68
2022/05/15 03:59:15;;;;;;;1999.90;999.90;;;;;;;-145.26;100.00;63821.50;4990130;28;20124;-68
2022/05/15 04:01:41;;;;;;;1999.90;999.90;;;;;;;-145.26;100.00;63821.50;5001181;28;20045;-68
2022/05/15 04:04:07;;;;;;;1999.90;999.90;;;;;;;-145.26;100.00;63821.50;5001873;28;20038;-68
2022/05/15 04:06:33;;;;;;;1999.90;999.90;;;;;;;-145.26;100.00;63821.50;4989632;28;20038;-68
2022/05/15 04:08:58;;;;;;;1999.90;999.90;;;;;;;-145.26;100.00;63821.50;4975824;28;20384;-68
2022/05/15 04:11:24;;;;;;;1999.90;999.90;;;;;;;-145.26;100.00;63821.50;4990029;28;20506;-68
2022/05/15 04:13:49;;;;;;;1999.90;999.90;;;;;;;-145.26;100.00;63821.50;4989459;28;20077;-68
2022/05/15 04:16:14;;;;;;;1999.90;999.90;;;;;;;-145.26;100.00;63821.50;4990608;28;20061;-68
2022/05/15 04:18:40;;;;;;;1999.90;999.90;;;;;;;-145.26;100.00;63821.50;5007598;28;20068;-68
2022/05/15 04:21:06;;;;;;;1999.90;999.90;;;;;;;-145.26;100.00;63821.50;4989977;28;20032;-68
2022/05/15 04:23:31;;;;;;;1999.90;999.90;;;;;;;-145.26;100.00;63821.50;4990128;28;20387;-68
2022/05/15 04:25:57;;;;;;;1999.90;999.90;;;;;;;-145.26;100.00;63821.50;4987843;28;20118;-68
2022/05/15 04:28:22;;;;;;;1999.90;999.90;;;;;;;-145.26;100.00;63821.50;4989533;28;20475;-66
2022/05/15 04:30:48;;;;;;;1999.90;999.90;;;;;;;-145.26;100.00;63821.50;4990123;28;20060;-68
2022/05/15 04:33:13;;;;;;;1999.90;999.90;;;;;;;-145.26;100.00;63821.50;5004169;28;20037;-68
2022/05/15 04:35:39;;;;;;;1999.90;999.90;;;;;;;-145.26;100.00;63821.50;4993415;28;20066;-68
2022/05/15 04:38:06;;;;;;;1999.90;999.90;;;;;;;-145.26;100.00;63821.50;4990217;28;20030;-69
2022/05/15 04:40:32;;;;;;;1999.90;999.90;;;;;;;-145.26;100.00;63821.50;4993302;28;20026;-68
2022/05/15 04:42:58;;;;;;;1999.90;999.90;;;;;;;-145.26;100.00;63821.50;4992877;28;20027;-68
2022/05/15 04:45:23;;;;;;;1999.90;999.90;;;;;;;-145.26;100.00;63821.50;4993448;28;20026;-69
2022/05/15 04:47:50;;;;;;;1999.90;999.90;;;;;;;-145.26;100.00;63821.50;5003577;28;20040;-69
2022/05/15 04:50:16;;;;;;;1999.90;999.90;;;;;;;-145.26;100.00;63821.50;5002380;28;20023;-69
2022/05/15 04:52:41;;;;;;;1999.90;999.90;;;;;;;-145.26;100.00;63821.50;4993078;28;20113;-69
2022/05/15 04:55:07;;;;;;;1999.90;999.90;;;;;;;-145.26;100.00;63821.50;4992085;28;20023;-69
2022/05/15 04:57:33;;;;;;;1999.90;999.90;;;;;;;-145.26;100.00;63821.50;4991935;28;20075;-69
2022/05/15 04:59:58;;;;;;;1999.90;999.90;;;;;;;-145.26;100.00;63821.50;4986909;28;20420;-69
2022/05/15 05:02:24;;;;;;;1999.90;999.90;;;;;;;-145.26;100.00;63821.50;4996353;28;20037;-69
2022/05/15 05:04:49;;;;;;;1999.90;999.90;;;;;;;-145.26;100.00;63821.50;4992312;28;20034;-69
2022/05/15 05:07:15;;;;;;;1999.90;999.90;;;;;;;-145.26;100.00;63821.50;4993089;28;20673;-68
2022/05/15 05:09:40;;;;;;;1999.90;999.90;;;;;;;-145.26;100.00;63821.50;4992635;28;20049;-68
2022/05/15 05:12:06;;;;;;;1999.90;999.90;;;;;;;-145.26;100.00;63821.50;4992150;28;20570;-69
2022/05/15 05:14:32;;;;;;;1999.90;999.90;;;;;;;-145.26;100.00;63821.50;4992952;28;20062;-69
2022/05/15 05:16:57;;;;;;;1999.90;999.90;;;;;;;-145.26;100.00;63821.50;4993080;28;20022;-69
2022/05/15 05:19:22;;;;;;;1999.90;999.90;;;;;;;-145.26;100.00;63821.50;5024057;23;20057;-67
2022/05/15 05:21:48;;;;;;;1999.90;999.90;;;;;;;-145.26;100.00;63821.50;5011446;28;20036;-67
2022/05/15 05:24:13;;;;;;;1999.90;999.90;;;;;;;-145.26;100.00;63821.50;5012230;28;20582;-67
2022/05/15 05:26:39;;;;;;;1999.90;999.90;;;;;;;-145.26;100.00;63821.50;5012114;28;20080;-67
2022/05/15 05:29:05;;;;;;;1999.90;999.90;;;;;;;-145.26;100.00;63821.50;5011722;28;20026;-67
2022/05/15 05:31:31;;;;;;;1999.90;999.90;;;;;;;-145.26;100.00;63821.50;5011261;28;20030;-67
2022/05/15 05:33:57;;;;;;;1999.90;999.90;;;;;;;-145.26;100.00;63821.50;5025003;28;20028;-66
2022/05/15 05:36:22;;;;;;;1999.90;999.90;;;;;;;-145.26;100.00;63821.50;5021744;28;20033;-67
2022/05/15 05:38:48;;;;;;;1999.90;999.90;;;;;;;-145.26;100.00;63821.50;4993818;28;20053;-67
2022/05/15 05:41:13;;;;;;;1999.90;999.90;;;;;;;-145.26;100.00;63821.50;5012012;28;20104;-66
2022/05/15 05:43:39;;;;;;;1999.90;999.90;;;;;;;-145.26;100.00;63821.50;5011012;28;20482;-67
2022/05/15 05:46:04;;;;;;;1999.90;999.90;;;;;;;-145.26;100.00;63821.50;5011714;28;20551;-67
2022/05/15 05:48:30;;;;;;;1999.90;999.90;;;;;;;-145.26;100.00;63821.50;5019620;28;20033;-67
2022/05/15 05:50:56;;;;;;;1999.90;999.90;;;;;;;-145.26;100.00;63821.50;5027281;28;20033;-67
2022/05/15 05:53:22;;;;;;;1999.90;999.90;;;;;;;-145.26;100.00;63821.50;5011828;28;20030;-66
2022/05/15 05:55:47;;;;;;;1999.90;999.90;;;;;;;-145.26;100.00;63821.50;5011659;28;20133;-67
2022/05/15 05:58:12;;;;;;;1999.90;999.90;;;;;;;-145.26;100.00;63821.50;5011253;28;20516;-67
2022/05/15 06:00:38;;;;;;;1999.90;999.90;;;;;;;-145.26;100.00;63821.50;5011527;28;20516;-67
2022/05/15 06:05:49;;;;;;;1999.90;999.90;;;;;;;-145.26;100.00;63821.50;4992075;28;20088;-67
2022/05/15 06:08:15;;;;;;;1999.90;999.90;;;;;;;-145.26;100.00;63821.50;4992439;28;20483;-67
2022/05/15 06:10:41;;;;;;;1999.90;999.90;;;;;;;-145.26;100.00;63821.50;5011266;28;20378;-67
2022/05/15 06:13:07;;;;;;;1999.90;999.90;;;;;;;-145.26;100.00;63821.50;5010218;28;20034;-68
2022/05/15 06:15:33;;;;;;;1999.90;999.90;;;;;;;-145.26;100.00;63821.50;4993379;28;20095;-67
2022/05/15 06:18:01;;;;;;;1999.90;999.90;;;;;;;-145.26;100.00;63821.50;5012045;28;20033;-67
2022/05/15 06:20:27;;;;;;;1999.90;999.90;;;;;;;-145.26;100.00;63821.50;5030436;28;20032;-67
2022/05/15 06:22:52;;;;;;;1999.90;999.90;;;;;;;-145.26;100.00;63821.50;5017421;28;20026;-67
2022/05/15 06:25:18;;;;;;;1999.90;999.90;;;;;;;-145.26;100.00;63821.50;5011070;28;20022;-66
2022/05/15 06:27:43;;;;;;;1999.90;999.90;;;;;;;-145.26;100.00;63821.50;5010597;28;20387;-67
2022/05/15 06:30:09;;;;;;;1999.90;999.90;;;;;;;-145.26;100.00;63821.50;5010482;28;20565;-67
2022/05/15 06:32:35;;;;;;;1999.90;999.90;;;;;;;-145.26;100.00;63821.50;5009978;28;20493;-67
2022/05/15 06:35:00;;;;;;;1999.90;999.90;;;;;;;-145.26;100.00;63821.50;4992637;28;20029;-67
2022/05/15 06:37:26;;;;;;;1999.90;999.90;;;;;;;-145.26;100.00;63821.50;5009836;28;20029;-66
2022/05/15 06:39:51;;;;;;;1999.90;999.90;;;;;;;-145.26;100.00;63821.50;4992950;28;20030;-67
2022/05/15 06:42:17;;;;;;;1999.90;999.90;;;;;;;-145.26;100.00;63821.50;4993267;28;20467;-67
2022/05/15 06:44:42;;;;;;;1999.90;999.90;;;;;;;-145.26;100.00;63821.50;4992357;28;20026;-67
2022/05/15 06:47:08;;;;;;;1999.90;999.90;;;;;;;-145.26;100.00;63821.50;5010710;28;20092;-67
2022/05/15 06:49:34;;;;;;;1999.90;999.90;;;;;;;-145.26;100.00;63821.50;5009807;28;20022;-67
2022/05/15 06:51:59;;;;;;;1999.90;999.90;;;;;;;-145.26;100.00;63821.50;4993094;28;20482;-67
2022/05/15 06:54:25;;;;;;;1999.90;999.90;;;;;;;-145.26;100.00;63821.50;4991732;28;20025;-68
2022/05/15 06:59:34;;;;;;;1999.90;999.90;;;;;;;-145.26;100.00;63821.50;5010477;28;20037;-66
2022/05/15 07:02:00;;;;;;;1999.90;999.90;;;;;;;-145.26;100.00;63821.50;5010440;28;20026;-66
2022/05/15 07:04:26;;;;;;;1999.90;999.90;;;;;;;-145.26;100.00;63821.50;5008712;28;20360;-66
2022/05/15 07:06:51;;;;;;;1999.90;999.90;;;;;;;-145.26;100.00;63821.50;5010458;28;20042;-66
2022/05/15 07:09:16;;;;;;;1999.90;999.90;;;;;;;-145.26;100.00;63821.50;5009056;28;20026;-68
2022/05/15 07:11:42;;;;;;;1999.90;999.90;;;;;;;-145.26;100.00;63821.50;5010296;28;20025;-70
2022/05/15 07:14:08;;;;;;;1999.90;999.90;;;;;;;-145.26;100.00;63821.50;5009654;28;20470;-73
2022/05/15 07:16:34;;;;;;;1999.90;999.90;;;;;;;-145.26;100.00;63821.50;4992601;28;20486;-72
2022/05/15 07:19:00;;;;;;;1999.90;999.90;;;;;;;-145.26;100.00;63821.50;5015786;28;20029;-73
2022/05/15 07:21:25;;;;;;;1999.90;999.90;;;;;;;-145.26;100.00;63821.50;5011987;28;20021;-72
2022/05/15 07:23:50;;;;;;;1999.90;999.90;;;;;;;-145.26;100.00;63821.50;4999719;28;20125;-72
2022/05/15 07:26:16;;;;;;;1999.90;999.90;;;;;;;-145.26;100.00;63821.50;5010324;28;20152;-72
2022/05/15 07:28:41;;;;;;;1999.90;999.90;;;;;;;-145.26;100.00;63821.50;4992258;28;20057;-73
2022/05/15 07:31:06;;;;;;;1999.90;999.90;;;;;;;-145.26;100.00;63821.50;4992235;28;20022;-68
2022/05/15 07:33:32;;;;;;;1999.90;999.90;;;;;;;-145.26;100.00;63821.50;5009382;28;20557;-69
2022/05/15 07:35:57;;;;;;;1999.90;999.90;;;;;;;-145.26;100.00;63821.50;5029966;28;20075;-65
2022/05/15 07:38:23;;;;;;;1999.90;999.90;;;;;;;-145.26;100.00;63821.50;5022020;28;20030;-67
2022/05/15 07:40:49;;;;;;;1999.90;999.90;;;;;;;-145.26;100.00;63821.50;5009843;28;20026;-66
2022/05/15 07:43:16;;;;;;;1999.90;999.90;;;;;;;-145.26;100.00;63821.50;5007299;28;20470;-66
2022/05/15 07:45:41;;;;;;;1999.90;999.90;;;;;;;-145.26;100.00;63821.50;5010258;28;20493;-68
2022/05/15 07:48:07;;;;;;;1999.90;999.90;;;;;;;-145.26;100.00;63821.50;4991825;28;20030;-70
2022/05/15 07:50:34;;;;;;;1999.90;999.90;;;;;;;-145.26;100.00;63821.50;5008119;28;20037;-69
2022/05/15 07:53:00;;;;;;;1999.90;999.90;;;;;;;-145.26;100.00;63821.50;4992713;28;20475;-70
2022/05/15 07:55:25;;;;;;;1999.90;999.90;;;;;;;-145.26;100.00;63821.50;5009176;28;20034;-68
2022/05/15 07:57:50;;;;;;;1999.90;999.90;;;;;;;-145.26;100.00;63821.50;5010238;28;20022;-69
2022/05/15 08:00:17;;;;;;;1999.90;999.90;;;;;;;-145.26;100.00;63821.50;5008767;28;20072;-69
2022/05/15 08:02:43;;;;;;;1999.90;999.90;;;;;;;-145.26;100.00;63821.50;5006214;28;20525;-69
2022/05/15 08:08:09;;;;;;;1999.90;999.90;;;;;;;-145.26;100.00;63821.50;5008657;28;20041;-69
2022/05/15 08:10:44;;;;;;;1999.90;999.90;;;;;;;-145.26;100.00;63821.50;4991390;28;20497;-71
2022/05/15 08:13:12;;;;;;;1999.90;999.90;;;;;;;-145.26;100.00;63821.50;5009245;28;20501;-69
2022/05/15 08:15:38;;;;;;;1999.90;999.90;;;;;;;-145.26;100.00;63821.50;5013045;28;20026;-67
2022/05/15 08:23:37;;;;;;;1999.90;999.90;;;;;;;-145.26;100.00;63821.50;4994344;28;20395;-67
2022/05/15 08:26:05;;;;;;;1999.90;999.90;;;;;;;-145.26;100.00;63821.50;5011411;28;20364;-65
2022/05/15 08:28:31;;;;;;;1999.90;999.90;;;;;;;-145.26;100.00;63821.50;4995421;28;20029;-67
2022/05/15 08:30:56;;;;;;;1999.90;999.90;;;;;;;-145.26;100.00;63821.50;4995905;28;20026;-66
2022/05/15 08:33:22;;;;;;;1999.90;999.90;;;;;;;-145.26;100.00;63821.50;5013560;28;20029;-67
2022/05/15 08:35:47;;;;;;;1999.90;999.90;;;;;;;-145.26;100.00;63821.50;4988953;28;20037;-65
2022/05/15 08:38:12;;;;;;;1999.90;999.90;;;;;;;-145.26;100.00;63821.50;4993183;28;20041;-66
2022/05/15 08:41:00;;;;;;;1999.90;999.90;;;;;;;-145.26;100.00;63821.50;5004553;28;20112;-66
2022/05/15 08:43:41;;;;;;;1999.90;999.90;;;;;;;-145.26;100.00;63821.50;5012219;28;20026;-66
2022/05/15 08:46:21;;;;;;;1999.90;999.90;;;;;;;-145.26;100.00;63821.50;5012553;28;20029;-66
2022/05/15 08:48:48;;;;;;;1999.90;999.90;;;;;;;-145.26;100.00;63821.50;4993372;28;20377;-66
2022/05/15 08:51:13;;;;;;;1999.90;999.90;;;;;;;-145.26;100.00;63821.50;5012364;28;20038;-66
2022/05/15 08:53:43;;;;;;;1999.90;999.90;;;;;;;-145.26;100.00;63821.50;5033075;28;20025;-67
2022/05/15 08:56:12;;;;;;;1999.90;999.90;;;;;;;-145.26;100.00;63821.50;5000815;28;20040;-66
2022/05/15 08:58:37;;;;;;;1999.90;999.90;;;;;;;-145.26;100.00;63821.50;5011420;28;20025;-66
2022/05/15 09:01:09;;;;;;;1999.90;999.90;;;;;;;-145.26;100.00;63821.50;4994629;28;20030;-67
2022/05/15 09:03:38;;;;;;;1999.90;999.90;;;;;;;-145.26;100.00;63821.50;4995692;28;20050;-67
2022/05/15 09:06:27;;;;;;;1999.90;999.90;;;;;;;-145.26;100.00;63821.50;5011670;28;20041;-64
2022/05/15 09:09:07;;;;;;;1999.90;999.90;;;;;;;-145.26;100.00;63821.50;5012574;28;20026;-69
2022/05/15 09:11:51;;;;;;;1999.90;999.90;;;;;;;-145.26;100.00;63821.50;4993121;28;20022;-69
2022/05/15 09:14:38;;;;;;;1999.90;999.90;;;;;;;-145.26;100.00;63821.50;4995404;28;20053;-67
2022/05/15 09:17:42;;;;;;;1999.90;999.90;;;;;;;-145.26;100.00;63821.50;5012027;28;20556;-67
2022/05/15 09:20:26;;;;;;;1999.90;999.90;;;;;;;-145.26;100.00;63821.50;5018184;28;20037;-66
2022/05/15 09:23:18;;;;;;;1999.90;999.90;;;;;;;-145.26;100.00;63821.50;5014916;28;20032;-66
2022/05/15 09:25:51;;;;;;;1999.90;999.90;;;;;;;-145.26;100.00;63821.50;5025784;28;20041;-68
2022/05/15 09:28:16;;;;;;;1999.90;999.90;;;;;;;-145.26;100.00;63821.50;5011060;28;20104;-67
2022/05/15 09:30:48;;;;;;;1999.90;999.90;;;;;;;-145.26;100.00;63821.50;4994625;28;20116;-67
2022/05/15 09:33:23;;;;;;;1999.90;999.90;;;;;;;-145.26;100.00;63821.50;5012524;28;20022;-67
2022/05/15 09:35:48;;;;;;;1999.90;999.90;;;;;;;-145.26;100.00;63821.50;5022584;28;20029;-67
2022/05/15 09:38:29;;;;;;;1999.90;999.90;;;;;;;-145.26;100.00;63821.50;5002617;28;20375;-68
2022/05/15 09:44:00;;;;;;;1999.90;999.90;;;;;;;-145.26;100.00;63821.50;5007148;28;20036;-68
2022/05/15 09:46:28;;;;;;;1999.90;999.90;;;;;;;-145.26;100.00;63821.50;4994034;28;20113;-67
2022/05/15 09:48:56;;;;;;;1999.90;999.90;;;;;;;-145.26;100.00;63821.50;5008978;28;20041;-68
2022/05/15 09:51:44;;;;;;;1999.90;999.90;;;;;;;-145.26;100.00;63821.50;5020295;28;20026;-68
2022/05/15 09:54:27;;;;;;;1999.90;999.90;;;;;;;-145.26;100.00;63821.50;4974546;28;20460;-69
2022/05/15 09:57:27;;;;;;;1999.90;999.90;;;;;;;-145.26;100.00;63821.50;4981195;28;20036;-69
2022/05/15 09:59:56;;;;;;;1999.90;999.90;;;;;;;-145.26;100.00;63821.50;5009319;28;20057;-68
2022/05/15 10:02:25;;;;;;;1999.90;999.90;;;;;;;-145.26;100.00;63821.50;4993813;28;20434;-68
2022/05/15 10:04:52;;;;;;;1999.90;999.90;;;;;;;-145.26;100.00;63821.50;5012678;28;20030;-67
2022/05/15 10:07:35;;;;;;;1999.90;999.90;;;;;;;-145.26;100.00;63821.50;5030830;28;20123;-68
2022/05/15 10:10:16;;;;;;;1999.90;999.90;;;;;;;-145.26;100.00;63821.50;4997987;28;20030;-68
2022/05/15 10:12:44;;;;;;;1999.90;999.90;;;;;;;-145.26;100.00;63821.50;4993123;28;20030;-69
2022/05/15 10:15:11;;;;;;;1999.90;999.90;;;;;;;-145.26;100.00;63821.50;4993893;28;20479;-68
2022/05/15 10:17:45;;;;;;;1999.90;999.90;;;;;;;-145.26;100.00;63821.50;5011178;28;20463;-69
2022/05/15 10:20:30;;;;;;;1999.90;999.90;;;;;;;-145.26;100.00;63821.50;5006954;28;20834;-69
2022/05/15 10:23:23;;;;;;;1999.90;999.90;;;;;;;-145.26;100.00;63821.50;5029379;28;20084;-69
2022/05/15 10:25:48;;;;;;;1999.90;999.90;;;;;;;-145.26;100.00;63821.50;5030296;28;20037;-69
2022/05/15 10:28:30;;;;;;;1999.90;999.90;;;;;;;-145.26;100.00;63821.50;5008679;28;20033;-69
2022/05/15 10:30:58;;;;;;;;;;;;;;;-145.26;100.00;63821.50;5011493;28;20105;-68
2022/05/15 10:33:24;;;;;;;1999.90;999.90;;;;;;;-145.26;100.00;63821.50;5009526;28;20329;-68
2022/05/15 10:36:07;;;;;;;1999.90;999.90;;;;;;;-145.26;100.00;63821.50;5015791;28;20030;-69
2022/05/15 10:38:48;;;;;;;1999.90;999.90;;;;;;;-145.26;100.00;63821.50;5028684;28;20490;-69
2022/05/15 10:41:28;;;;;;;1999.90;999.90;;;;;;;-145.26;100.00;63821.50;5027516;28;20056;-70
2022/05/15 10:44:03;;;;;;;1999.90;999.90;;;;;;;-145.26;100.00;63821.50;5010237;28;20487;-69
2022/05/15 10:46:52;;;;;;;1999.90;999.90;;;;;;;-145.26;100.00;63821.50;5010456;28;20025;-69
2022/05/15 10:49:23;;;;;;;1999.90;999.90;;;;;;;-145.26;100.00;63821.50;5008246;28;20037;-68
2022/05/15 10:52:03;;;;;;;1999.90;999.90;;;;;;;-145.26;100.00;63821.50;5020093;28;20030;-67
2022/05/15 10:57:39;;;;;;;1999.90;999.90;;;;;;;-145.26;100.00;63821.50;5009661;28;20548;-69
2022/05/15 11:00:23;;;;;;;1999.90;999.90;;;;;;;-145.26;100.00;63821.50;5010280;28;20117;-68
2022/05/15 11:03:14;;;;;;;1999.90;999.90;;;;;;;-145.26;100.00;63821.50;5009762;28;20030;-70